sensor_id;sensor_type;location;lat;lon;timestamp;noise_LAeq;noise_LA_min;noise_LA_max;noise_LA01;noise_LA95
66888;Laerm;67239;51.680;5.976;2023-01-29T00:02:17;34.89;31.42;50.61;;
66888;Laerm;67239;51.680;5.976;2023-01-29T00:04:44;54.47;32.16;71.65;;
66888;Laerm;67239;51.680;5.976;2023-01-29T00:07:11;39.95;32.52;60.55;;
66888;Laerm;67239;51.680;5.976;2023-01-29T00:09:39;58.42;32.48;78.60;;
66888;Laerm;67239;51.680;5.976;2023-01-29T00:12:06;35.68;32.86;42.11;;
66888;Laerm;67239;51.680;5.976;2023-01-29T00:14:35;55.19;33.01;73.31;;
66888;Laerm;67239;51.680;5.976;2023-01-29T00:17:01;61.10;34.98;79.31;;
66888;Laerm;67239;51.680;5.976;2023-01-29T00:19:29;40.72;33.44;61.69;;
66888;Laerm;67239;51.680;5.976;2023-01-29T00:21:55;35.67;32.03;45.83;;
66888;Laerm;67239;51.680;5.976;2023-01-29T00:24:22;34.88;31.86;39.89;;
66888;Laerm;67239;51.680;5.976;2023-01-29T00:26:49;54.93;32.39;72.29;;
66888;Laerm;67239;51.680;5.976;2023-01-29T00:29:17;36.26;32.10;53.06;;
66888;Laerm;67239;51.680;5.976;2023-01-29T00:31:44;38.01;32.59;52.41;;
66888;Laerm;67239;51.680;5.976;2023-01-29T00:34:12;58.05;33.21;76.60;;
66888;Laerm;67239;51.680;5.976;2023-01-29T00:36:39;36.78;33.46;48.83;;
66888;Laerm;67239;51.680;5.976;2023-01-29T00:39:06;36.76;32.70;44.41;;
66888;Laerm;67239;51.680;5.976;2023-01-29T00:41:37;36.69;32.86;43.37;;
66888;Laerm;67239;51.680;5.976;2023-01-29T00:44:23;40.44;33.05;52.41;;
66888;Laerm;67239;51.680;5.976;2023-01-29T00:47:08;56.38;33.12;75.60;;
66888;Laerm;67239;51.680;5.976;2023-01-29T00:50:11;61.64;32.74;78.28;;
66888;Laerm;67239;51.680;5.976;2023-01-29T00:52:39;64.43;32.75;87.70;;
66888;Laerm;67239;51.680;5.976;2023-01-29T00:55:10;42.53;33.00;56.83;;
66888;Laerm;67239;51.680;5.976;2023-01-29T00:57:37;55.91;33.93;73.22;;
66888;Laerm;67239;51.680;5.976;2023-01-29T01:00:09;38.78;34.14;52.23;;
66888;Laerm;67239;51.680;5.976;2023-01-29T01:02:37;35.48;32.18;43.52;;
66888;Laerm;67239;51.680;5.976;2023-01-29T01:05:23;36.63;33.30;45.11;;
66888;Laerm;67239;51.680;5.976;2023-01-29T01:07:53;35.94;32.09;45.95;;
66888;Laerm;67239;51.680;5.976;2023-01-29T01:10:29;59.65;33.50;75.54;;
66888;Laerm;67239;51.680;5.976;2023-01-29T01:13:00;35.70;32.50;41.90;;
66888;Laerm;67239;51.680;5.976;2023-01-29T01:15:36;57.29;33.52;80.04;;
66888;Laerm;67239;51.680;5.976;2023-01-29T01:18:04;54.11;32.94;78.80;;
66888;Laerm;67239;51.680;5.976;2023-01-29T01:20:34;35.85;32.54;45.42;;
66888;Laerm;67239;51.680;5.976;2023-01-29T01:23:02;35.31;32.18;44.40;;
66888;Laerm;67239;51.680;5.976;2023-01-29T01:25:29;38.25;33.15;46.85;;
66888;Laerm;67239;51.680;5.976;2023-01-29T01:27:58;35.31;32.55;39.65;;
66888;Laerm;67239;51.680;5.976;2023-01-29T01:30:26;37.36;32.13;47.62;;
66888;Laerm;67239;51.680;5.976;2023-01-29T01:32:54;59.81;33.36;80.03;;
66888;Laerm;67239;51.680;5.976;2023-01-29T01:35:21;57.12;33.84;76.59;;
66888;Laerm;67239;51.680;5.976;2023-01-29T01:37:48;55.00;32.61;72.17;;
66888;Laerm;67239;51.680;5.976;2023-01-29T01:40:18;37.89;33.26;53.86;;
66888;Laerm;67239;51.680;5.976;2023-01-29T01:42:52;37.24;33.39;52.26;;
66888;Laerm;67239;51.680;5.976;2023-01-29T01:45:24;58.02;33.24;75.06;;
66888;Laerm;67239;51.680;5.976;2023-01-29T01:48:06;58.85;33.38;77.87;;
66888;Laerm;67239;51.680;5.976;2023-01-29T01:50:48;36.75;33.19;44.23;;
66888;Laerm;67239;51.680;5.976;2023-01-29T01:53:37;36.72;33.10;44.18;;
66888;Laerm;67239;51.680;5.976;2023-01-29T01:56:14;34.98;31.22;41.66;;
66888;Laerm;67239;51.680;5.976;2023-01-29T01:58:54;36.69;31.65;50.45;;
66888;Laerm;67239;51.680;5.976;2023-01-29T02:01:24;36.87;33.03;45.10;;
66888;Laerm;67239;51.680;5.976;2023-01-29T02:04:06;58.14;32.97;78.32;;
66888;Laerm;67239;51.680;5.976;2023-01-29T02:06:55;36.66;33.48;42.68;;
66888;Laerm;67239;51.680;5.976;2023-01-29T02:10:10;36.87;33.22;44.40;;
66888;Laerm;67239;51.680;5.976;2023-01-29T02:12:45;37.04;33.04;45.88;;
66888;Laerm;67239;51.680;5.976;2023-01-29T02:15:14;59.67;34.21;79.76;;
66888;Laerm;67239;51.680;5.976;2023-01-29T02:17:42;37.17;34.12;44.53;;
66888;Laerm;67239;51.680;5.976;2023-01-29T02:20:17;58.96;34.14;79.17;;
66888;Laerm;67239;51.680;5.976;2023-01-29T02:26:01;36.56;32.05;51.11;;
66888;Laerm;67239;51.680;5.976;2023-01-29T02:29:01;36.65;32.50;45.76;;
66888;Laerm;67239;51.680;5.976;2023-01-29T02:32:08;37.55;32.71;47.86;;
66888;Laerm;67239;51.680;5.976;2023-01-29T02:34:59;35.81;31.79;47.29;;
66888;Laerm;67239;51.680;5.976;2023-01-29T02:38:24;38.99;31.59;56.45;;
66888;Laerm;67239;51.680;5.976;2023-01-29T02:41:02;58.62;31.76;76.96;;
66888;Laerm;67239;51.680;5.976;2023-01-29T02:43:40;36.42;31.68;44.13;;
66888;Laerm;67239;51.680;5.976;2023-01-29T02:46:17;35.69;30.84;43.22;;
66888;Laerm;67239;51.680;5.976;2023-01-29T02:52:04;34.45;30.93;41.07;;
66888;Laerm;67239;51.680;5.976;2023-01-29T02:54:45;35.67;30.89;42.90;;
66888;Laerm;67239;51.680;5.976;2023-01-29T02:57:25;58.26;31.53;77.56;;
66888;Laerm;67239;51.680;5.976;2023-01-29T03:02:40;35.51;32.23;43.26;;
66888;Laerm;67239;51.680;5.976;2023-01-29T03:05:17;35.05;31.83;52.66;;
66888;Laerm;67239;51.680;5.976;2023-01-29T03:07:56;35.08;31.46;48.14;;
66888;Laerm;67239;51.680;5.976;2023-01-29T03:10:38;35.34;31.85;41.07;;
66888;Laerm;67239;51.680;5.976;2023-01-29T03:13:23;34.94;31.36;46.92;;
66888;Laerm;67239;51.680;5.976;2023-01-29T03:16:05;35.35;31.60;44.15;;
66888;Laerm;67239;51.680;5.976;2023-01-29T03:18:46;35.50;31.94;43.61;;
66888;Laerm;67239;51.680;5.976;2023-01-29T03:21:24;34.70;31.48;43.86;;
66888;Laerm;67239;51.680;5.976;2023-01-29T03:24:17;34.20;30.86;48.50;;
66888;Laerm;67239;51.680;5.976;2023-01-29T03:27:09;33.98;30.29;47.70;;
66888;Laerm;67239;51.680;5.976;2023-01-29T03:29:58;34.73;31.39;44.48;;
66888;Laerm;67239;51.680;5.976;2023-01-29T03:33:02;56.76;31.42;75.27;;
66888;Laerm;67239;51.680;5.976;2023-01-29T03:35:36;33.89;30.39;43.23;;
66888;Laerm;67239;51.680;5.976;2023-01-29T03:38:08;34.86;31.53;45.13;;
66888;Laerm;67239;51.680;5.976;2023-01-29T03:40:49;35.33;31.85;45.80;;
66888;Laerm;67239;51.680;5.976;2023-01-29T03:43:33;35.34;31.55;45.51;;
66888;Laerm;67239;51.680;5.976;2023-01-29T03:46:27;33.70;30.66;43.44;;
66888;Laerm;67239;51.680;5.976;2023-01-29T03:54:39;35.48;31.77;41.69;;
66888;Laerm;67239;51.680;5.976;2023-01-29T03:59:58;55.00;31.24;72.29;;
66888;Laerm;67239;51.680;5.976;2023-01-29T04:05:32;33.98;30.62;41.16;;
66888;Laerm;67239;51.680;5.976;2023-01-29T04:08:24;36.35;32.72;50.23;;
66888;Laerm;67239;51.680;5.976;2023-01-29T04:11:04;35.89;32.74;43.80;;
66888;Laerm;67239;51.680;5.976;2023-01-29T04:13:35;35.85;32.64;49.89;;
66888;Laerm;67239;51.680;5.976;2023-01-29T04:16:08;33.55;30.98;42.54;;
66888;Laerm;67239;51.680;5.976;2023-01-29T04:19:04;59.98;31.44;81.05;;
66888;Laerm;67239;51.680;5.976;2023-01-29T04:21:37;33.57;30.36;39.40;;
66888;Laerm;67239;51.680;5.976;2023-01-29T04:24:06;63.23;31.26;83.06;;
66888;Laerm;67239;51.680;5.976;2023-01-29T04:26:57;57.93;32.65;76.39;;
66888;Laerm;67239;51.680;5.976;2023-01-29T04:35:28;63.36;33.91;80.90;;
66888;Laerm;67239;51.680;5.976;2023-01-29T04:41:32;67.22;35.36;85.62;;
66888;Laerm;67239;51.680;5.976;2023-01-29T04:44:08;57.72;33.91;74.96;;
66888;Laerm;67239;51.680;5.976;2023-01-29T04:55:26;36.94;33.68;45.58;;
66888;Laerm;67239;51.680;5.976;2023-01-29T04:58:26;35.98;32.76;43.32;;
66888;Laerm;67239;51.680;5.976;2023-01-29T05:00:57;36.57;32.33;43.82;;
66888;Laerm;67239;51.680;5.976;2023-01-29T05:03:27;67.10;34.56;81.60;;
66888;Laerm;67239;51.680;5.976;2023-01-29T05:05:59;64.75;35.11;81.27;;
66888;Laerm;67239;51.680;5.976;2023-01-29T05:08:30;61.23;33.38;78.16;;
66888;Laerm;67239;51.680;5.976;2023-01-29T05:10:59;56.21;33.99;73.46;;
66888;Laerm;67239;51.680;5.976;2023-01-29T05:13:30;37.57;34.31;45.47;;
66888;Laerm;67239;51.680;5.976;2023-01-29T05:16:10;58.61;34.17;76.00;;
66888;Laerm;67239;51.680;5.976;2023-01-29T05:18:39;60.96;32.88;79.48;;
66888;Laerm;67239;51.680;5.976;2023-01-29T05:21:08;36.07;32.30;42.35;;
66888;Laerm;67239;51.680;5.976;2023-01-29T05:23:36;57.04;34.21;76.04;;
66888;Laerm;67239;51.680;5.976;2023-01-29T05:26:04;36.69;32.71;49.59;;
66888;Laerm;67239;51.680;5.976;2023-01-29T05:28:31;63.95;33.51;79.89;;
66888;Laerm;67239;51.680;5.976;2023-01-29T05:30:58;59.48;33.89;77.43;;
66888;Laerm;67239;51.680;5.976;2023-01-29T05:33:30;61.30;33.51;79.34;;
66888;Laerm;67239;51.680;5.976;2023-01-29T05:35:58;38.36;32.61;58.07;;
66888;Laerm;67239;51.680;5.976;2023-01-29T05:38:25;60.96;33.55;79.24;;
66888;Laerm;67239;51.680;5.976;2023-01-29T05:40:52;58.31;34.64;77.08;;
66888;Laerm;67239;51.680;5.976;2023-01-29T05:43:23;38.39;34.08;55.61;;
66888;Laerm;67239;51.680;5.976;2023-01-29T05:45:59;40.75;34.13;68.33;;
66888;Laerm;67239;51.680;5.976;2023-01-29T05:48:28;44.15;34.25;55.63;;
66888;Laerm;67239;51.680;5.976;2023-01-29T05:51:03;57.32;35.21;72.55;;
66888;Laerm;67239;51.680;5.976;2023-01-29T05:53:31;59.18;33.66;74.91;;
66888;Laerm;67239;51.680;5.976;2023-01-29T05:56:03;36.58;33.07;41.43;;
66888;Laerm;67239;51.680;5.976;2023-01-29T05:58:31;37.06;33.14;49.48;;
66888;Laerm;67239;51.680;5.976;2023-01-29T06:01:18;55.69;33.47;72.27;;
66888;Laerm;67239;51.680;5.976;2023-01-29T06:03:45;56.89;32.94;77.90;;
66888;Laerm;67239;51.680;5.976;2023-01-29T06:06:14;40.13;33.72;50.18;;
66888;Laerm;67239;51.680;5.976;2023-01-29T06:08:42;62.62;34.05;80.29;;
66888;Laerm;67239;51.680;5.976;2023-01-29T06:11:11;59.88;33.95;79.30;;
66888;Laerm;67239;51.680;5.976;2023-01-29T06:13:39;59.44;33.66;76.08;;
66888;Laerm;67239;51.680;5.976;2023-01-29T06:16:09;64.82;34.05;83.50;;
66888;Laerm;67239;51.680;5.976;2023-01-29T06:18:37;39.69;32.57;54.05;;
66888;Laerm;67239;51.680;5.976;2023-01-29T06:21:07;57.80;32.37;77.14;;
66888;Laerm;67239;51.680;5.976;2023-01-29T06:23:36;59.38;34.24;77.32;;
66888;Laerm;67239;51.680;5.976;2023-01-29T06:26:06;58.68;34.22;73.61;;
66888;Laerm;67239;51.680;5.976;2023-01-29T06:28:34;57.54;33.73;76.27;;
66888;Laerm;67239;51.680;5.976;2023-01-29T06:31:03;38.28;33.67;42.78;;
66888;Laerm;67239;51.680;5.976;2023-01-29T06:33:50;39.11;35.27;47.54;;
66888;Laerm;67239;51.680;5.976;2023-01-29T06:36:17;61.28;34.87;75.23;;
66888;Laerm;67239;51.680;5.976;2023-01-29T06:38:44;42.83;35.52;55.53;;
66888;Laerm;67239;51.680;5.976;2023-01-29T06:41:22;60.05;35.90;77.34;;
66888;Laerm;67239;51.680;5.976;2023-01-29T06:43:51;62.88;35.48;82.74;;
66888;Laerm;67239;51.680;5.976;2023-01-29T06:46:18;58.17;34.32;79.04;;
66888;Laerm;67239;51.680;5.976;2023-01-29T06:48:45;61.16;35.70;80.99;;
66888;Laerm;67239;51.680;5.976;2023-01-29T06:51:12;59.11;34.56;80.27;;
66888;Laerm;67239;51.680;5.976;2023-01-29T06:53:40;60.98;35.51;76.37;;
66888;Laerm;67239;51.680;5.976;2023-01-29T06:56:08;41.17;35.96;54.50;;
66888;Laerm;67239;51.680;5.976;2023-01-29T06:58:37;56.92;34.83;74.17;;
66888;Laerm;67239;51.680;5.976;2023-01-29T07:01:11;39.82;35.25;53.68;;
66888;Laerm;67239;51.680;5.976;2023-01-29T07:03:51;53.30;36.42;69.87;;
66888;Laerm;67239;51.680;5.976;2023-01-29T07:06:18;58.82;37.15;75.41;;
66888;Laerm;67239;51.680;5.976;2023-01-29T07:08:48;55.68;36.61;70.95;;
66888;Laerm;67239;51.680;5.976;2023-01-29T07:11:15;40.73;36.89;54.35;;
66888;Laerm;67239;51.680;5.976;2023-01-29T07:13:42;58.67;35.40;78.08;;
66888;Laerm;67239;51.680;5.976;2023-01-29T07:16:09;39.55;34.42;52.24;;
66888;Laerm;67239;51.680;5.976;2023-01-29T07:18:36;40.54;35.18;53.70;;
66888;Laerm;67239;51.680;5.976;2023-01-29T07:21:05;60.25;36.06;78.40;;
66888;Laerm;67239;51.680;5.976;2023-01-29T07:23:33;63.72;36.01;81.64;;
66888;Laerm;67239;51.680;5.976;2023-01-29T07:26:05;55.12;35.60;71.80;;
66888;Laerm;67239;51.680;5.976;2023-01-29T07:28:38;59.51;36.08;75.44;;
66888;Laerm;67239;51.680;5.976;2023-01-29T07:31:07;58.72;37.11;74.69;;
66888;Laerm;67239;51.680;5.976;2023-01-29T07:33:44;60.44;36.96;80.67;;
66888;Laerm;67239;51.680;5.976;2023-01-29T07:36:12;57.22;36.32;75.43;;
66888;Laerm;67239;51.680;5.976;2023-01-29T07:38:39;61.71;37.91;78.11;;
66888;Laerm;67239;51.680;5.976;2023-01-29T07:41:08;42.49;35.31;58.04;;
66888;Laerm;67239;51.680;5.976;2023-01-29T07:43:35;59.49;35.42;76.10;;
66888;Laerm;67239;51.680;5.976;2023-01-29T07:46:03;58.26;36.28;75.18;;
66888;Laerm;67239;51.680;5.976;2023-01-29T07:48:31;44.73;35.83;63.93;;
66888;Laerm;67239;51.680;5.976;2023-01-29T07:50:58;60.65;36.88;78.27;;
66888;Laerm;67239;51.680;5.976;2023-01-29T07:53:27;62.96;36.72;80.30;;
66888;Laerm;67239;51.680;5.976;2023-01-29T07:55:54;61.43;34.77;76.27;;
66888;Laerm;67239;51.680;5.976;2023-01-29T07:58:22;64.64;36.61;79.38;;
66888;Laerm;67239;51.680;5.976;2023-01-29T08:00:49;62.82;35.91;80.39;;
66888;Laerm;67239;51.680;5.976;2023-01-29T08:03:18;60.79;35.08;78.11;;
66888;Laerm;67239;51.680;5.976;2023-01-29T08:05:46;62.78;36.82;80.04;;
66888;Laerm;67239;51.680;5.976;2023-01-29T08:08:14;66.92;36.55;84.75;;
66888;Laerm;67239;51.680;5.976;2023-01-29T08:10:41;65.64;37.08;83.22;;
66888;Laerm;67239;51.680;5.976;2023-01-29T08:13:08;65.19;38.15;81.54;;
66888;Laerm;67239;51.680;5.976;2023-01-29T08:15:35;65.23;38.23;80.89;;
66888;Laerm;67239;51.680;5.976;2023-01-29T08:18:22;48.14;35.90;68.32;;
66888;Laerm;67239;51.680;5.976;2023-01-29T08:20:49;62.08;37.45;77.07;;
66888;Laerm;67239;51.680;5.976;2023-01-29T08:23:18;66.68;38.06;81.18;;
66888;Laerm;67239;51.680;5.976;2023-01-29T08:25:45;61.55;37.41;76.47;;
66888;Laerm;67239;51.680;5.976;2023-01-29T08:28:12;66.01;38.42;82.63;;
66888;Laerm;67239;51.680;5.976;2023-01-29T08:30:40;66.22;37.42;80.98;;
66888;Laerm;67239;51.680;5.976;2023-01-29T08:33:07;66.64;38.52;82.62;;
66888;Laerm;67239;51.680;5.976;2023-01-29T08:35:34;61.51;37.55;79.95;;
66888;Laerm;67239;51.680;5.976;2023-01-29T08:38:04;64.48;37.00;80.21;;
66888;Laerm;67239;51.680;5.976;2023-01-29T08:40:33;62.68;38.25;81.24;;
66888;Laerm;67239;51.680;5.976;2023-01-29T08:43:04;59.35;37.27;76.50;;
66888;Laerm;67239;51.680;5.976;2023-01-29T08:45:40;61.81;37.44;77.76;;
66888;Laerm;67239;51.680;5.976;2023-01-29T08:48:08;63.54;38.22;81.67;;
66888;Laerm;67239;51.680;5.976;2023-01-29T08:50:36;63.44;39.22;78.15;;
66888;Laerm;67239;51.680;5.976;2023-01-29T08:53:06;63.93;40.23;79.65;;
66888;Laerm;67239;51.680;5.976;2023-01-29T08:55:40;62.16;38.36;75.19;;
66888;Laerm;67239;51.680;5.976;2023-01-29T08:58:10;66.04;38.92;79.82;;
66888;Laerm;67239;51.680;5.976;2023-01-29T09:00:38;63.63;37.99;82.55;;
66888;Laerm;67239;51.680;5.976;2023-01-29T09:03:05;66.01;38.60;80.72;;
66888;Laerm;67239;51.680;5.976;2023-01-29T09:05:35;67.32;38.76;82.13;;
66888;Laerm;67239;51.680;5.976;2023-01-29T09:08:05;62.53;38.94;77.10;;
66888;Laerm;67239;51.680;5.976;2023-01-29T09:10:33;67.67;38.44;83.45;;
66888;Laerm;67239;51.680;5.976;2023-01-29T09:13:00;66.32;38.13;80.02;;
66888;Laerm;67239;51.680;5.976;2023-01-29T09:15:27;63.60;38.34;78.71;;
66888;Laerm;67239;51.680;5.976;2023-01-29T09:17:54;68.22;39.73;82.66;;
66888;Laerm;67239;51.680;5.976;2023-01-29T09:20:21;66.89;38.30;80.60;;
66888;Laerm;67239;51.680;5.976;2023-01-29T09:22:48;68.20;39.00;82.30;;
66888;Laerm;67239;51.680;5.976;2023-01-29T09:25:17;68.71;40.34;84.34;;
66888;Laerm;67239;51.680;5.976;2023-01-29T09:27:45;65.98;39.07;82.48;;
66888;Laerm;67239;51.680;5.976;2023-01-29T09:30:12;65.21;40.91;78.24;;
66888;Laerm;67239;51.680;5.976;2023-01-29T09:32:39;67.81;40.11;84.21;;
66888;Laerm;67239;51.680;5.976;2023-01-29T09:35:21;64.12;38.33;81.68;;
66888;Laerm;67239;51.680;5.976;2023-01-29T09:37:50;68.21;39.20;81.07;;
66888;Laerm;67239;51.680;5.976;2023-01-29T09:40:30;67.33;39.20;84.83;;
66888;Laerm;67239;51.680;5.976;2023-01-29T09:46:37;66.43;39.00;81.04;;
66888;Laerm;67239;51.680;5.976;2023-01-29T09:49:14;61.57;39.18;76.45;;
66888;Laerm;67239;51.680;5.976;2023-01-29T09:51:55;66.22;40.53;80.46;;
66888;Laerm;67239;51.680;5.976;2023-01-29T09:55:04;63.01;38.50;75.53;;
66888;Laerm;67239;51.680;5.976;2023-01-29T09:57:45;66.34;38.97;79.14;;
66888;Laerm;67239;51.680;5.976;2023-01-29T10:00:46;68.28;40.20;81.53;;
66888;Laerm;67239;51.680;5.976;2023-01-29T10:06:28;64.70;38.26;79.25;;
66888;Laerm;67239;51.680;5.976;2023-01-29T10:15:30;67.87;38.58;87.13;;
66888;Laerm;67239;51.680;5.976;2023-01-29T10:24:56;66.66;40.47;83.40;;
66888;Laerm;67239;51.680;5.976;2023-01-29T10:27:32;66.62;39.10;81.45;;
66888;Laerm;67239;51.680;5.976;2023-01-29T10:30:06;68.63;43.80;82.94;;
66888;Laerm;67239;51.680;5.976;2023-01-29T10:32:36;62.68;38.50;80.14;;
66888;Laerm;67239;51.680;5.976;2023-01-29T10:35:16;64.51;38.74;77.44;;
66888;Laerm;67239;51.680;5.976;2023-01-29T10:37:46;66.13;40.86;82.60;;
66888;Laerm;67239;51.680;5.976;2023-01-29T10:40:38;67.37;39.16;80.32;;
66888;Laerm;67239;51.680;5.976;2023-01-29T10:43:23;65.64;39.62;82.81;;
66888;Laerm;67239;51.680;5.976;2023-01-29T10:54:48;66.03;41.21;81.02;;
66888;Laerm;67239;51.680;5.976;2023-01-29T11:00:27;66.43;44.76;80.76;;
66888;Laerm;67239;51.680;5.976;2023-01-29T11:02:56;61.64;41.34;76.33;;
66888;Laerm;67239;51.680;5.976;2023-01-29T11:08:05;63.76;40.37;79.45;;
66888;Laerm;67239;51.680;5.976;2023-01-29T11:10:45;65.73;40.71;80.77;;
66888;Laerm;67239;51.680;5.976;2023-01-29T11:13:17;66.75;40.29;81.06;;
66888;Laerm;67239;51.680;5.976;2023-01-29T11:15:44;61.25;40.31;79.75;;
66888;Laerm;67239;51.680;5.976;2023-01-29T11:18:13;66.02;41.27;81.33;;
66888;Laerm;67239;51.680;5.976;2023-01-29T11:20:43;67.39;46.12;79.08;;
66888;Laerm;67239;51.680;5.976;2023-01-29T11:23:30;66.81;40.87;82.52;;
66888;Laerm;67239;51.680;5.976;2023-01-29T11:25:59;68.48;45.98;83.00;;
66888;Laerm;67239;51.680;5.976;2023-01-29T11:28:40;67.72;40.06;81.37;;
66888;Laerm;67239;51.680;5.976;2023-01-29T11:31:23;64.32;41.51;79.96;;
66888;Laerm;67239;51.680;5.976;2023-01-29T11:34:03;69.24;40.72;79.48;;
66888;Laerm;67239;51.680;5.976;2023-01-29T11:36:36;68.39;42.42;83.73;;
66888;Laerm;67239;51.680;5.976;2023-01-29T11:39:23;70.86;49.61;86.85;;
66888;Laerm;67239;51.680;5.976;2023-01-29T11:42:03;63.81;41.38;78.49;;
66888;Laerm;67239;51.680;5.976;2023-01-29T11:44:41;68.26;41.78;81.47;;
66888;Laerm;67239;51.680;5.976;2023-01-29T11:47:22;64.66;40.79;77.18;;
66888;Laerm;67239;51.680;5.976;2023-01-29T11:49:56;64.22;39.88;78.21;;
66888;Laerm;67239;51.680;5.976;2023-01-29T11:52:34;67.07;42.04;77.90;;
66888;Laerm;67239;51.680;5.976;2023-01-29T11:55:25;67.49;47.03;82.97;;
66888;Laerm;67239;51.680;5.976;2023-01-29T11:58:15;66.55;46.38;80.70;;
66888;Laerm;67239;51.680;5.976;2023-01-29T12:00:51;60.97;40.15;76.12;;
66888;Laerm;67239;51.680;5.976;2023-01-29T12:03:40;69.36;41.27;83.93;;
66888;Laerm;67239;51.680;5.976;2023-01-29T12:06:18;65.77;41.05;80.50;;
66888;Laerm;67239;51.680;5.976;2023-01-29T12:08:59;67.26;42.24;80.40;;
66888;Laerm;67239;51.680;5.976;2023-01-29T12:11:31;68.75;41.41;81.19;;
66888;Laerm;67239;51.680;5.976;2023-01-29T12:14:07;66.82;40.86;79.19;;
66888;Laerm;67239;51.680;5.976;2023-01-29T12:17:20;65.79;40.51;79.31;;
66888;Laerm;67239;51.680;5.976;2023-01-29T12:20:00;66.32;40.73;78.14;;
66888;Laerm;67239;51.680;5.976;2023-01-29T12:22:50;67.11;48.61;77.58;;
66888;Laerm;67239;51.680;5.976;2023-01-29T12:25:40;65.46;44.89;78.31;;
66888;Laerm;67239;51.680;5.976;2023-01-29T12:28:30;66.67;47.72;78.11;;
66888;Laerm;67239;51.680;5.976;2023-01-29T12:34:23;68.95;48.21;79.36;;
66888;Laerm;67239;51.680;5.976;2023-01-29T12:37:21;67.67;42.19;82.57;;
66888;Laerm;67239;51.680;5.976;2023-01-29T12:39:51;68.64;43.84;79.87;;
66888;Laerm;67239;51.680;5.976;2023-01-29T12:42:21;68.29;41.52;80.27;;
66888;Laerm;67239;51.680;5.976;2023-01-29T12:45:01;69.77;41.37;81.12;;
66888;Laerm;67239;51.680;5.976;2023-01-29T12:47:40;70.12;47.24;82.79;;
66888;Laerm;67239;51.680;5.976;2023-01-29T12:50:32;66.81;39.69;81.16;;
66888;Laerm;67239;51.680;5.976;2023-01-29T12:53:31;63.71;39.60;77.95;;
66888;Laerm;67239;51.680;5.976;2023-01-29T12:56:27;68.22;40.25;83.49;;
66888;Laerm;67239;51.680;5.976;2023-01-29T12:59:03;70.13;44.73;81.27;;
66888;Laerm;67239;51.680;5.976;2023-01-29T13:01:41;66.92;42.65;82.60;;
66888;Laerm;67239;51.680;5.976;2023-01-29T13:04:47;70.59;41.42;84.94;;
66888;Laerm;67239;51.680;5.976;2023-01-29T13:07:28;70.67;47.48;83.05;;
66888;Laerm;67239;51.680;5.976;2023-01-29T13:10:09;68.99;47.07;83.72;;
66888;Laerm;67239;51.680;5.976;2023-01-29T13:12:50;64.06;41.44;78.49;;
66888;Laerm;67239;51.680;5.976;2023-01-29T13:15:30;69.86;46.88;84.28;;
66888;Laerm;67239;51.680;5.976;2023-01-29T13:20:49;71.09;44.30;83.02;;
66888;Laerm;67239;51.680;5.976;2023-01-29T13:23:36;69.12;48.74;80.93;;
66888;Laerm;67239;51.680;5.976;2023-01-29T13:26:04;68.46;46.02;80.69;;
66888;Laerm;67239;51.680;5.976;2023-01-29T13:28:32;66.30;47.56;77.58;;
66888;Laerm;67239;51.680;5.976;2023-01-29T13:31:32;70.81;38.87;83.24;;
66888;Laerm;67239;51.680;5.976;2023-01-29T13:34:07;67.55;40.58;81.74;;
66888;Laerm;67239;51.680;5.976;2023-01-29T13:36:36;67.69;45.23;82.26;;
66888;Laerm;67239;51.680;5.976;2023-01-29T13:39:23;69.75;44.47;83.66;;
66888;Laerm;67239;51.680;5.976;2023-01-29T13:41:53;66.53;39.24;80.70;;
66888;Laerm;67239;51.680;5.976;2023-01-29T13:44:27;65.11;38.88;79.14;;
66888;Laerm;67239;51.680;5.976;2023-01-29T13:47:04;68.69;44.26;83.79;;
66888;Laerm;67239;51.680;5.976;2023-01-29T13:49:42;67.54;43.91;80.39;;
66888;Laerm;67239;51.680;5.976;2023-01-29T13:52:39;67.66;40.47;82.69;;
66888;Laerm;67239;51.680;5.976;2023-01-29T13:57:54;67.79;39.57;81.89;;
66888;Laerm;67239;51.680;5.976;2023-01-29T14:10:42;67.85;41.91;80.48;;
66888;Laerm;67239;51.680;5.976;2023-01-29T14:19:04;64.75;38.16;84.24;;
66888;Laerm;67239;51.680;5.976;2023-01-29T14:21:34;64.84;39.00;85.43;;
66888;Laerm;67239;51.680;5.976;2023-01-29T14:24:18;66.46;40.80;78.68;;
66888;Laerm;67239;51.680;5.976;2023-01-29T14:26:53;59.74;38.32;73.98;;
66888;Laerm;67239;51.680;5.976;2023-01-29T14:29:27;66.16;43.75;77.75;;
66888;Laerm;67239;51.680;5.976;2023-01-29T14:32:17;61.77;38.92;79.21;;
66888;Laerm;67239;51.680;5.976;2023-01-29T14:34:53;67.40;39.89;83.22;;
66888;Laerm;67239;51.680;5.976;2023-01-29T14:37:33;63.95;39.10;79.87;;
66888;Laerm;67239;51.680;5.976;2023-01-29T14:42:52;65.68;41.98;77.68;;
66888;Laerm;67239;51.680;5.976;2023-01-29T14:45:37;61.71;38.74;76.96;;
66888;Laerm;67239;51.680;5.976;2023-01-29T14:48:34;65.75;41.60;78.81;;
66888;Laerm;67239;51.680;5.976;2023-01-29T14:51:17;61.21;38.09;78.24;;
66888;Laerm;67239;51.680;5.976;2023-01-29T14:53:59;66.38;39.99;80.89;;
66888;Laerm;67239;51.680;5.976;2023-01-29T14:59:32;66.90;44.82;82.69;;
66888;Laerm;67239;51.680;5.976;2023-01-29T15:02:14;65.02;40.99;78.60;;
66888;Laerm;67239;51.680;5.976;2023-01-29T15:04:50;65.54;43.59;79.80;;
66888;Laerm;67239;51.680;5.976;2023-01-29T15:07:34;65.55;39.32;78.88;;
66888;Laerm;67239;51.680;5.976;2023-01-29T15:10:19;67.67;40.35;82.71;;
66888;Laerm;67239;51.680;5.976;2023-01-29T15:12:55;65.15;38.32;79.71;;
66888;Laerm;67239;51.680;5.976;2023-01-29T15:18:17;64.67;40.07;78.37;;
66888;Laerm;67239;51.680;5.976;2023-01-29T15:20:45;69.58;40.61;83.05;;
66888;Laerm;67239;51.680;5.976;2023-01-29T15:23:28;65.15;38.51;79.81;;
66888;Laerm;67239;51.680;5.976;2023-01-29T15:26:03;60.85;39.41;78.90;;
66888;Laerm;67239;51.680;5.976;2023-01-29T15:28:34;67.36;40.31;80.29;;
66888;Laerm;67239;51.680;5.976;2023-01-29T15:31:06;65.99;39.36;82.24;;
66888;Laerm;67239;51.680;5.976;2023-01-29T15:33:43;66.43;39.83;79.95;;
66888;Laerm;67239;51.680;5.976;2023-01-29T15:36:23;67.86;43.14;84.58;;
66888;Laerm;67239;51.680;5.976;2023-01-29T15:39:24;65.74;39.42;79.46;;
66888;Laerm;67239;51.680;5.976;2023-01-29T15:42:11;64.53;39.91;79.84;;
66888;Laerm;67239;51.680;5.976;2023-01-29T15:44:44;62.71;38.93;79.30;;
66888;Laerm;67239;51.680;5.976;2023-01-29T15:47:13;63.18;39.73;76.38;;
66888;Laerm;67239;51.680;5.976;2023-01-29T15:49:41;66.57;40.53;82.29;;
66888;Laerm;67239;51.680;5.976;2023-01-29T15:52:26;61.18;40.09;76.93;;
66888;Laerm;67239;51.680;5.976;2023-01-29T15:54:56;68.21;40.85;84.56;;
66888;Laerm;67239;51.680;5.976;2023-01-29T15:57:35;65.69;39.71;78.86;;
66888;Laerm;67239;51.680;5.976;2023-01-29T16:00:07;63.85;42.21;78.51;;
66888;Laerm;67239;51.680;5.976;2023-01-29T16:02:41;67.39;44.92;80.41;;
66888;Laerm;67239;51.680;5.976;2023-01-29T16:05:19;67.81;41.19;83.68;;
66888;Laerm;67239;51.680;5.976;2023-01-29T16:07:50;66.98;44.68;78.50;;
66888;Laerm;67239;51.680;5.976;2023-01-29T16:10:22;65.77;43.23;80.82;;
66888;Laerm;67239;51.680;5.976;2023-01-29T16:12:51;62.46;43.01;80.60;;
66888;Laerm;67239;51.680;5.976;2023-01-29T16:15:32;63.13;41.44;77.72;;
66888;Laerm;67239;51.680;5.976;2023-01-29T16:18:17;66.70;42.86;81.98;;